Timeline UpdatesTrip UpdatesNews PostsPvt PostsTravel TipsAdmin PostsConv PostsFollowed PostsChat RequestsBlog PostsPNR Posts

Disclaimer
Search
 
 
Thu Aug 21, 2014 03:56:12 ISTHomeTrainsΣChainsAtlasPNRForumGalleryNewsFAQTripsMembersLoginFeedback
No Recent News for this Train
Other Trains in the News **new
Latest...
Will stop at Ramanagaram, according to IRCTC
Tue Mar 11, 2014 (07:35PM)
⇐ Return Journey: Train# 16209

16210/Mysore-Ajmer Express

Mar 11 2014 (10:33AM)
Change Departure Station:
Change Arrival Station:
Post a Train Travel TipPost a Train Travel Tip **new
Post a Comment/Question/Picture/VideoPost a Comment/Question/Picture/Video
Pantry/Catering
✓ Pantry Car Avbl
✓ Catering Avbl
RSA - Rake Sharing
16217/16218 Mysore-Shirdi Express
Rake/Coach Composition
LOCO-SLR-GEN-GEN-A1-A2-B1-B2-S1-S2-S3-PC-S4-S5-S6-S7-S8-S9-S10-S11-S12-S13-GEN-SLR; Total 23 coaches
Loco
UBL WDP-4/4B No Loco Change at Pune / Ahmedabad
News    PNR    Forum    Time-Table    Availability    Fare Chart    Map    Arr/Dep History    Trips    Gallery    ΣChains    X/O    Timeline    
Travel Time: 47h 30m    42 halts    Distance: 2291 km    Avg Speed: 48 km/hr
Type: Mail/Express
Zone: SWR/South Western
Departs @ 18:00 (Avg 3m late)
Platform# 5
  T T  
Mysore Junction/MYS 
Arrives @ 17:30 +2 nights (Avg 24m late)
Platform# 3
    T S
Ajmer Junction/AII 

42 halts. 370 intermediate Stations between Mysore Junction and Ajmer Junction

Show ALL intermediate Stations  Show Old Time-Table

#CodeStation NameX/OArrivesAvgDepartsAvgHaltPFDay#KmSpeedElevZoneAddress
1MYS»Mysore Junction (6)»  -18:00+3510.054760mSWRTel No 0821-2521751.URL: www.mysorerailwaystation.in, Karnataka
2MYAMandya (3)  18:49+2318:50+241m--144.253672mSWRMandya, Karnataka
3RMGMRamanagaram (4)X  19:45+3419:46+331m2192.824692mSWRRamanagaram, Karnataka
4SBCBangalore City Junction (10)O  21:35+721:55+720m81137.234903mSWRBengaluru-560023, Karnataka
5YPRYesvantpur Junction (6)22:05+922:07+92m--1142.869919mSWRBengaluru 560022, Karnataka
6TKTumkur (3)  23:03+923:05+92m11206.871823mSWRTumkur, Karnataka
7TTRTiptur (4)  00:05+1200:06+131m22277.839860mSWRTiptur, Karnataka
8ASKArsikere Junction (3)  00:45+200:50+75m--2303.356816mSWRArsikere, Karnataka
9RRBBirur Junction (3)  01:38+201:40+52m--2348.364802mSWRBirur, Karnataka
10DVGDavangere (2)  03:27+2703:30+263m--2463.343598mSWRDavanagere, Karnataka
11HRRHarihar (3)  03:48+2603:50+272m--2476.158553mSWRHarihar, Karnataka
12RNRRanibennur (3)  04:14+2604:15+271m--2499.467583mSWRRanebennur, Karnataka
13HVRHaveri (3)  04:44+3004:45+311m--2532.045558mSWRHaveri, Karnataka
14UBLHubli Junction (5)  06:25+1206:35+2210m12607.152640mSWRHubli - 580020, Karnataka
15DWRDharwad (4)  06:58+2707:00+262m12627.151737mSWRDharwad 580001, Karnataka
16LDLonda Junction (3)  08:23+2908:25+322m22697.644643mSWRLonda, Karnataka
17BGMBelgaum (3)X  09:35+3009:40+345m12748.946752mSWRBelgaum 590001, Karnataka
18MRJMiraj Junction (6)  12:40+1012:45+215m12886.337554mCRMiraj 416410, Maharashtra
19SLISangli (3)  12:57+2413:00+243m12893.669559mCRSangli, Maharashtra
20KRDKarad (3)  13:59+2514:00+271m12961.559597mCRDist- Satara., Maharashtra
21STRSatara (3)  15:00+3215:03+333m121020.240637mCRSatara, Maharashtra
22PUNEPune Junction (6)  18:40+918:50+1410m321165.955556mCRPune 411001, Maharashtra
23LNLLonavala (3)  19:59+1220:00+171m221229.535623mCRLonavala 410401, Maharashtra
24KJTKarjat Junction (4)X  20:49+1920:50+211m221258.25657mCRKarjat, Maharashtra
25KYNKalyan Junction (8)  21:40+2021:45+175m721305.04510mCRKalyan 421301, Maharashtra
26BIRDBhiwandi Road (4)  22:09+2922:10+311m421323.04126mCRBhiwandi, Maharashtra
27BSRVasai Road (7)  22:50+2122:55+215m621350.3647mWRVasai 401202, Maharashtra
28VAPIVapi (3)X  00:49+2600:50+271m--31471.36327mWRVapi, Gujarat
29BLValsad (3)X  01:15+2501:16+291m231497.64615mWRValsad, Gujarat
30STSurat (4)  02:45+902:55+810m131566.37919mWRSurat 395001, Gujarat
31BHBharuch Junction (5)  03:40+1703:41+181m331625.67419mWRBharuch, Gujarat
32BRCVadodara Junction (7)  04:38+2604:55+2617m231696.16536mWRVadodara 390005, Gujarat
33ANNDAnand Junction (6)  05:28+5105:29+521m--31731.86944mWRAnand, Gujarat
34NDNadiad Junction (4)X  05:45+4705:46+471m--31750.34637mWRNadiad, Gujarat
35ADIAhmedabad Junction (12)  06:45+4007:05+4520m331795.93351mWRAhmedabad, Gujarat
36MSHMahesana Junction (6)  09:19+2009:20+231m231868.95095mWRMehsana, Gujarat
37PNUPalanpur Junction (5)  10:38+910:40+162m131933.949216mWRPalanpur, Gujarat
38ABRAbu Road (3)XO  11:45+2911:55+3310m231986.566264mNWRSirohi Dist, Rajasthan
39SOHSirohi Road (2)  12:35+3412:36+371m--32030.465369mNWRPindwara, Rajasthan
40FAFalna (2)  13:27+4413:28+461m132085.464282mNWRFalna, Rajasthan
41MJMarwar Junction (4)  14:30+4114:32+452m--32151.966267mNWRMarwar Junction, Rajasthan
42SODSojat Road (2)  14:51+4814:52+501m--32172.845295mNWRSojat Road, Rajasthan
43BERBeawar (2)  16:20+3016:21+321m--32239.345447mNWRBeawar, Rajasthan
44AII•Ajmer Junction (5)•  17:30+24-332291.5-464mNWRPin: 305001, Rajasthan
Scroll to Top
Scroll to Bottom